Time;durP1;ratioP1;P1;durP2;ratioP2;P2;SDS_P1;SDS_P2;PMS_P1;PMS_P2;Temp;Humidity;BMP_temperature;BMP_pressure;BME280_temperature;BME280_humidity;BME280_pressure;Samples;Min_cycle;Max_cycle;Signal;HPM_P1;HPM_P2
2022/05/23 00:02:08;;;;;;;0.00;0.00;;;19.40;99.90;;;;;;4949433;29;20060;-68
2022/05/23 00:04:34;;;;;;;0.00;0.00;;;19.40;99.90;;;;;;4948996;29;20081;-68
2022/05/23 00:07:00;;;;;;;0.00;0.00;;;19.40;99.70;;;;;;4934385;29;20035;-68
2022/05/23 00:09:26;;;;;;;0.00;0.00;;;19.30;99.80;;;;;;4948805;29;20058;-68
2022/05/23 00:11:53;;;;;;;0.00;0.00;;;19.30;99.90;;;;;;4932824;29;20063;-68
2022/05/23 00:14:19;;;;;;;2.72;1.55;;;19.20;99.90;;;;;;4949008;29;20028;-68
2022/05/23 00:16:49;;;;;;;0.35;0.32;;;19.20;99.90;;;;;;4933924;29;20075;-68
2022/05/23 00:19:16;;;;;;;0.13;0.10;;;19.20;99.90;;;;;;4948489;28;20602;-68
2022/05/23 00:21:46;;;;;;;0.00;0.00;;;19.10;99.90;;;;;;4934120;29;20063;-68
2022/05/23 00:24:13;;;;;;;2.40;0.47;;;18.90;99.90;;;;;;4948377;28;20028;-68
2022/05/23 00:26:46;;;;;;;0.17;0.17;;;18.70;99.90;;;;;;4948779;28;20049;-68
2022/05/23 00:29:12;;;;;;;0.00;0.00;;;18.80;99.90;;;;;;4932741;29;20046;-68
2022/05/23 00:35:17;;;;;;;0.00;0.00;;;18.70;99.90;;;;;;4949014;29;20114;-68
2022/05/23 00:37:08;;;;;;;9.43;1.02;;;18.70;99.90;;;;;;4933846;29;20047;-68
2022/05/23 00:39:34;;;;;;;0.60;0.28;;;18.60;99.90;;;;;;4948291;28;20043;-67
2022/05/23 00:44:44;;;;;;;0.15;0.15;;;18.30;99.90;;;;;;4946109;29;20063;-68
2022/05/23 00:47:22;;;;;;;0.13;0.10;;;18.20;99.90;;;;;;4948261;28;20032;-67
2022/05/23 00:49:48;;;;;;;0.00;0.00;;;18.10;99.90;;;;;;4948220;29;20028;-67
2022/05/23 00:52:28;;;;;;;0.10;0.10;;;18.20;99.90;;;;;;4933693;29;20043;-68
2022/05/23 00:55:01;;;;;;;0.00;0.00;;;18.30;99.90;;;;;;4947793;29;20059;-68
2022/05/23 00:57:40;;;;;;;0.40;0.40;;;18.40;99.90;;;;;;4947943;29;20070;-68
2022/05/23 01:00:09;;;;;;;0.15;0.10;;;18.40;99.90;;;;;;4932157;29;20260;-68
2022/05/23 01:02:36;;;;;;;0.60;0.52;;;18.30;99.90;;;;;;4932206;29;20110;-68
2022/05/23 01:05:08;;;;;;;0.00;0.00;;;18.30;99.90;;;;;;4947845;29;20042;-68
2022/05/23 01:07:34;;;;;;;1.08;0.50;;;18.30;99.90;;;;;;4947833;29;20396;-67
2022/05/23 01:10:00;;;;;;;0.10;0.10;;;18.30;99.90;;;;;;4947731;29;20035;-68
2022/05/23 01:12:27;;;;;;;0.00;0.00;;;18.20;99.90;;;;;;4948119;29;20038;-68
2022/05/23 01:14:59;;;;;;;0.28;0.20;;;18.20;99.90;;;;;;4948158;29;20115;-69
2022/05/23 01:17:27;;;;;;;0.70;0.70;;;18.20;99.90;;;;;;4932951;29;20477;-68
2022/05/23 01:19:53;;;;;;;0.20;0.10;;;18.10;99.90;;;;;;4931970;29;20035;-68
2022/05/23 01:22:40;;;;;;;0.20;0.20;;;18.00;99.90;;;;;;4933579;29;20036;-68
2022/05/23 01:25:31;;;;;;;0.00;0.00;;;18.00;99.90;;;;;;4933313;29;20075;-68
2022/05/23 01:27:57;;;;;;;0.05;0.05;;;17.80;99.90;;;;;;4947587;29;20027;-69
2022/05/23 01:30:24;;;;;;;0.25;0.22;;;17.80;99.90;;;;;;4933213;29;20073;-69
2022/05/23 01:32:50;;;;;;;0.10;0.10;;;17.80;99.90;;;;;;4948009;29;20422;-69
2022/05/23 01:35:16;;;;;;;0.00;0.00;;;17.80;99.90;;;;;;4948181;28;20047;-68
2022/05/23 01:37:42;;;;;;;0.00;0.00;;;17.90;99.90;;;;;;4936136;29;20495;-68
2022/05/23 01:40:13;;;;;;;0.00;0.00;;;17.90;99.90;;;;;;4935693;29;20063;-68
2022/05/23 01:42:40;;;;;;;0.00;0.00;;;17.90;99.90;;;;;;4951764;29;20055;-68
2022/05/23 01:45:07;;;;;;;0.00;0.00;;;17.80;99.90;;;;;;4937265;29;20042;-68
2022/05/23 01:47:33;;;;;;;0.10;0.10;;;17.80;99.90;;;;;;4951532;28;20061;-68
2022/05/23 01:49:59;;;;;;;0.00;0.00;;;17.80;99.90;;;;;;4951791;29;20059;-68
2022/05/23 01:52:25;;;;;;;0.05;0.05;;;17.80;99.90;;;;;;4951867;29;20036;-68
2022/05/23 01:54:50;;;;;;;0.00;0.00;;;17.80;99.90;;;;;;4935617;29;20028;-68
2022/05/23 01:57:16;;;;;;;0.10;0.10;;;17.80;99.90;;;;;;4937082;29;20104;-68
2022/05/23 02:02:26;;;;;;;0.00;0.00;;;17.80;99.90;;;;;;4949507;29;20042;-68
2022/05/23 02:04:54;;;;;;;0.00;0.00;;;17.80;99.90;;;;;;4937134;29;20432;-68
2022/05/23 02:07:20;;;;;;;0.20;0.13;;;17.70;99.90;;;;;;4951048;28;20518;-69
2022/05/23 02:09:46;;;;;;;0.22;0.22;;;17.60;99.90;;;;;;4951300;29;20436;-69
2022/05/23 02:12:17;;;;;;;0.10;0.10;;;17.50;99.90;;;;;;4935436;29;20038;-68
2022/05/23 02:14:48;;;;;;;0.10;0.10;;;17.40;99.90;;;;;;4950838;29;20059;-68
2022/05/23 02:17:14;;;;;;;0.20;0.13;;;17.30;99.90;;;;;;4983283;23;20589;-67
2022/05/23 02:19:40;;;;;;;0.20;0.20;;;17.40;99.90;;;;;;4943879;29;20051;-67
2022/05/23 02:22:06;;;;;;;0.17;0.17;;;17.50;99.90;;;;;;4955648;28;20039;-67
2022/05/23 02:24:31;;;;;;;0.17;0.17;;;17.50;99.90;;;;;;4955545;29;20027;-67
2022/05/23 02:26:58;;;;;;;0.00;0.00;;;17.40;99.90;;;;;;4955426;28;20070;-67
2022/05/23 02:29:24;;;;;;;0.10;0.10;;;17.50;99.90;;;;;;4955244;29;20038;-67
2022/05/23 02:31:50;;;;;;;0.00;0.00;;;17.60;99.90;;;;;;4955481;29;20046;-67
2022/05/23 02:34:18;;;;;;;0.00;0.00;;;17.70;99.90;;;;;;4954126;29;20151;-67
2022/05/23 02:36:46;;;;;;;0.00;0.00;;;17.70;99.90;;;;;;4955376;28;20031;-67
2022/05/23 02:39:12;;;;;;;0.40;0.40;;;17.80;99.90;;;;;;4954005;29;20397;-68
2022/05/23 02:41:38;;;;;;;0.00;0.00;;;17.80;99.90;;;;;;4955321;29;20090;-67
2022/05/23 02:44:05;;;;;;;0.00;0.00;;;17.90;99.90;;;;;;4954053;29;20218;-67
2022/05/23 02:46:31;;;;;;;0.10;0.10;;;17.90;99.90;;;;;;4953832;28;20031;-67
2022/05/23 02:48:57;;;;;;;0.25;0.22;;;18.00;99.90;;;;;;4953889;29;20031;-67
2022/05/23 02:51:23;;;;;;;0.00;0.00;;;18.00;99.90;;;;;;4953838;29;20039;-68
2022/05/23 02:53:50;;;;;;;0.00;0.00;;;18.00;99.90;;;;;;4953669;29;20031;-67
2022/05/23 02:56:17;;;;;;;0.40;0.40;;;18.00;99.90;;;;;;4953616;28;20574;-67
2022/05/23 02:58:43;;;;;;;0.00;0.00;;;18.10;99.90;;;;;;4953509;28;20046;-67
2022/05/23 03:01:11;;;;;;;0.20;0.20;;;18.10;99.90;;;;;;4953292;29;20377;-67
2022/05/23 03:03:39;;;;;;;0.00;0.00;;;18.20;99.90;;;;;;4954815;28;20121;-67
2022/05/23 03:06:06;;;;;;;0.20;0.15;;;18.20;99.90;;;;;;4954905;28;20039;-67
2022/05/23 03:08:32;;;;;;;0.32;0.32;;;18.10;99.90;;;;;;4954831;29;20031;-68
2022/05/23 03:11:03;;;;;;;0.22;0.22;;;18.10;99.90;;;;;;4937860;29;20038;-67
2022/05/23 03:13:30;;;;;;;0.00;0.00;;;18.00;99.90;;;;;;4955077;29;20031;-67
2022/05/23 03:15:57;;;;;;;7.03;2.55;;;18.00;99.90;;;;;;4953218;28;20094;-67
2022/05/23 03:18:24;;;;;;;0.28;0.28;;;18.00;99.90;;;;;;4953228;29;20027;-67
2022/05/23 03:21:01;;;;;;;0.10;0.08;;;18.00;99.90;;;;;;4953150;29;20035;-67
2022/05/23 03:28:56;;;;;;;0.00;0.00;;;17.70;99.90;;;;;;4923444;28;20047;-67
2022/05/23 03:31:22;;;;;;;0.20;0.20;;;17.80;99.90;;;;;;4954433;28;20114;-67
2022/05/23 03:33:47;;;;;;;0.00;0.00;;;17.80;99.90;;;;;;4955260;28;20059;-67
2022/05/23 03:36:14;;;;;;;0.08;0.08;;;17.90;99.90;;;;;;4966949;28;20027;-66
2022/05/23 03:38:40;;;;;;;0.00;0.00;;;17.90;99.90;;;;;;4964256;28;20035;-67
2022/05/23 03:41:08;;;;;;;0.00;0.00;;;17.90;99.90;;;;;;4973375;28;20110;-66
2022/05/23 03:43:34;;;;;;;0.63;0.52;;;17.90;99.90;;;;;;4971115;28;20081;-65
2022/05/23 03:46:08;;;;;;;0.00;0.00;;;17.80;99.90;;;;;;4973039;28;20026;-67
2022/05/23 03:48:35;;;;;;;0.00;0.00;;;17.80;99.90;;;;;;4989273;28;20030;-64
2022/05/23 03:51:01;;;;;;;3.40;1.42;;;17.70;99.90;;;;;;4995777;28;20038;-64
2022/05/23 03:53:29;;;;;;;0.13;0.10;;;17.70;99.90;;;;;;4972550;28;20157;-64
2022/05/23 03:55:56;;;;;;;0.00;0.00;;;17.80;99.90;;;;;;4972325;28;20035;-64
2022/05/23 03:58:23;;;;;;;0.45;0.45;;;17.90;99.90;;;;;;4992285;28;20030;-64
2022/05/23 04:00:49;;;;;;;0.03;0.03;;;17.90;99.90;;;;;;4972610;28;20030;-61
2022/05/23 04:03:19;;;;;;;2.47;1.50;;;18.00;99.90;;;;;;4972863;28;20069;-61
2022/05/23 04:05:45;;;;;;;0.20;0.20;;;17.50;99.90;;;;;;4993821;28;20065;-61
2022/05/23 04:08:12;;;;;;;0.22;0.22;;;17.40;99.90;;;;;;4972030;28;20505;-61
2022/05/23 04:10:41;;;;;;;0.00;0.00;;;17.20;99.90;;;;;;4987386;28;20085;-62
2022/05/23 04:13:07;;;;;;;0.13;0.13;;;17.10;99.90;;;;;;4969870;28;20101;-62
2022/05/23 04:15:33;;;;;;;0.47;0.47;;;16.90;99.90;;;;;;4965319;28;20162;-66
2022/05/23 04:17:59;;;;;;;0.75;0.30;;;16.80;99.90;;;;;;4965711;28;20394;-62
2022/05/23 04:20:26;;;;;;;0.00;0.00;;;16.70;99.90;;;;;;4967608;28;20799;-63
2022/05/23 04:22:52;;;;;;;0.00;0.00;;;16.80;99.90;;;;;;4966880;28;20499;-61
2022/05/23 04:25:18;;;;;;;0.40;0.40;;;16.80;99.90;;;;;;4971423;28;20019;-62
2022/05/23 04:27:44;;;;;;;0.00;0.00;;;16.80;99.90;;;;;;4972054;28;20038;-63
2022/05/23 04:30:13;;;;;;;0.70;0.70;;;16.90;99.90;;;;;;4962339;28;20038;-62
2022/05/23 04:35:24;;;;;;;0.08;0.08;;;17.00;99.90;;;;;;4969825;28;20595;-62
2022/05/23 04:37:53;;;;;;;0.00;0.00;;;16.90;99.90;;;;;;4952427;29;20130;-62
2022/05/23 04:40:28;;;;;;;0.05;0.05;;;16.90;99.90;;;;;;4953295;28;20157;-63
2022/05/23 04:42:54;;;;;;;0.10;0.10;;;16.90;99.90;;;;;;4964147;28;20037;-63
2022/05/23 04:45:20;;;;;;;0.93;0.93;;;17.00;99.90;;;;;;4971851;28;20057;-64
2022/05/23 04:50:32;;;;;;;0.13;0.13;;;17.40;99.90;;;;;;4952376;29;20109;-64
2022/05/23 04:53:01;;;;;;;0.00;0.00;;;17.70;99.90;;;;;;4955479;28;20058;-64
2022/05/23 04:55:27;;;;;;;0.98;0.60;;;17.80;99.90;;;;;;4967290;28;20057;-64
2022/05/23 04:57:58;;;;;;;0.35;0.35;;;17.20;99.90;;;;;;4971434;28;20109;-64
2022/05/23 05:00:24;;;;;;;2.28;1.27;;;16.90;99.90;;;;;;4967052;28;20038;-63
2022/05/23 05:02:51;;;;;;;12.30;2.05;;;17.10;99.90;;;;;;4986099;28;20069;-63
2022/05/23 05:05:19;;;;;;;0.13;0.10;;;17.00;99.90;;;;;;4971785;28;20077;-63
2022/05/23 05:07:45;;;;;;;1.20;0.80;;;16.90;99.90;;;;;;4971577;28;20605;-64
2022/05/23 05:10:11;;;;;;;8.68;1.80;;;16.60;99.90;;;;;;4969473;28;20038;-64
2022/05/23 05:12:37;;;;;;;0.15;0.15;;;16.60;99.90;;;;;;4971462;28;20113;-62
2022/05/23 05:15:04;;;;;;;0.00;0.00;;;16.40;99.90;;;;;;4970073;28;20026;-62
2022/05/23 05:17:29;;;;;;;0.75;0.52;;;16.20;99.90;;;;;;4969649;28;20634;-62
2022/05/23 05:19:55;;;;;;;1.77;0.68;;;16.30;99.90;;;;;;4944397;28;20054;-62
2022/05/23 05:22:21;;;;;;;0.20;0.20;;;16.60;99.90;;;;;;4970945;28;20027;-62
2022/05/23 05:24:47;;;;;;;0.10;0.10;;;16.50;99.90;;;;;;4970039;28;20043;-62
2022/05/23 05:27:13;;;;;;;1.17;0.45;;;16.40;99.90;;;;;;4971105;28;20042;-62
2022/05/23 05:29:38;;;;;;;0.20;0.20;;;16.30;99.90;;;;;;4971345;28;20041;-62
2022/05/23 05:32:18;;;;;;;0.22;0.22;;;16.40;99.90;;;;;;4971165;28;20027;-62
2022/05/23 05:34:52;;;;;;;1.13;0.43;;;16.50;99.90;;;;;;4971518;28;20031;-61
2022/05/23 05:37:33;;;;;;;0.63;0.63;;;16.40;99.90;;;;;;4969870;28;20034;-62
2022/05/23 05:40:04;;;;;;;0.43;0.43;;;16.10;99.90;;;;;;4952956;28;20027;-61
2022/05/23 05:42:40;;;;;;;0.17;0.17;;;16.10;99.90;;;;;;4952916;28;20574;-62
2022/05/23 05:45:15;;;;;;;0.22;0.22;;;16.20;99.90;;;;;;4969871;28;20027;-62
2022/05/23 05:47:45;;;;;;;0.88;0.80;;;16.50;99.90;;;;;;4970735;28;20047;-62
2022/05/23 05:50:27;;;;;;;0.22;0.22;;;16.60;99.90;;;;;;4969633;28;20049;-62
2022/05/23 05:52:58;;;;;;;0.28;0.20;;;16.70;99.90;;;;;;4970585;28;20035;-65
2022/05/23 05:55:24;;;;;;;0.30;0.30;;;16.90;99.90;;;;;;4970543;28;20027;-62
2022/05/23 05:57:50;;;;;;;0.40;0.40;;;17.00;99.90;;;;;;4970187;28;20050;-61
2022/05/23 06:00:17;;;;;;;0.00;0.00;;;17.20;99.90;;;;;;4969750;28;20036;-62
2022/05/23 06:02:44;;;;;;;0.10;0.10;;;17.50;99.90;;;;;;4971178;28;20031;-62
2022/05/23 06:05:10;;;;;;;0.70;0.70;;;17.60;99.90;;;;;;4969793;28;20805;-62
2022/05/23 06:13:04;;;;;;;0.60;0.55;;;17.70;99.90;;;;;;4983883;28;20031;-63
2022/05/23 06:15:30;;;;;;;0.20;0.20;;;17.80;99.90;;;;;;4986028;28;20147;-62
2022/05/23 06:17:56;;;;;;;0.00;0.00;;;17.80;99.90;;;;;;4970842;28;20043;-62
2022/05/23 06:20:23;;;;;;;0.10;0.10;;;17.90;99.90;;;;;;4970946;28;20030;-62
2022/05/23 06:22:50;;;;;;;0.15;0.15;;;17.80;99.90;;;;;;4987968;28;20487;-62
2022/05/23 06:25:17;;;;;;;0.10;0.10;;;18.00;99.90;;;;;;4989551;28;20066;-62
2022/05/23 06:27:43;;;;;;;1.52;1.38;;;18.10;99.90;;;;;;4972993;28;20034;-62
2022/05/23 06:30:13;;;;;;;4.40;1.08;;;18.20;99.90;;;;;;4989188;28;20027;-62
2022/05/23 06:32:39;;;;;;;0.30;0.15;;;18.30;99.90;;;;;;4974338;28;20043;-62
2022/05/23 06:35:07;;;;;;;1.00;0.88;;;18.30;99.90;;;;;;4974723;28;20438;-62
2022/05/23 06:37:38;;;;;;;0.13;0.13;;;18.50;99.90;;;;;;4989159;28;20071;-62
2022/05/23 06:40:07;;;;;;;0.00;0.00;;;18.60;99.90;;;;;;4974393;28;20027;-62
2022/05/23 06:42:34;;;;;;;0.40;0.40;;;18.40;99.90;;;;;;4974262;28;20097;-62
2022/05/23 06:45:01;;;;;;;0.05;0.05;;;18.50;99.90;;;;;;4974544;28;20018;-62
2022/05/23 06:47:27;;;;;;;0.13;0.13;;;18.70;99.90;;;;;;4974111;28;20474;-63
2022/05/23 06:49:53;;;;;;;0.22;0.20;;;18.70;99.90;;;;;;4988822;28;20042;-62
2022/05/23 06:52:19;;;;;;;0.00;0.00;;;18.70;99.90;;;;;;4974492;28;20045;-63
2022/05/23 06:54:45;;;;;;;0.22;0.22;;;18.70;99.90;;;;;;4988847;28;20037;-63
2022/05/23 06:57:11;;;;;;;2.13;0.75;;;18.90;99.90;;;;;;4988934;28;20046;-63
2022/05/23 06:59:37;;;;;;;1.10;0.95;;;18.80;99.90;;;;;;4989112;28;20026;-63
2022/05/23 07:02:06;;;;;;;1.15;0.85;;;18.80;99.90;;;;;;4974559;28;20089;-65
2022/05/23 07:12:47;;;;;;;0.60;0.60;;;18.20;99.90;;;;;;4973653;28;20550;-64
2022/05/23 07:15:13;;;;;;;0.00;0.00;;;18.30;99.90;;;;;;4973697;28;20114;-65
2022/05/23 07:17:39;;;;;;;0.22;0.20;;;18.30;99.90;;;;;;4979565;28;20101;-65
2022/05/23 07:20:05;;;;;;;3.72;0.32;;;18.40;99.90;;;;;;4988351;28;20121;-65
2022/05/23 07:22:32;;;;;;;0.30;0.30;;;18.40;99.90;;;;;;4972595;28;20022;-65
2022/05/23 07:24:59;;;;;;;0.00;0.00;;;18.20;99.90;;;;;;4973960;28;20023;-65
2022/05/23 07:27:29;;;;;;;0.15;0.15;;;18.30;99.90;;;;;;4972132;28;20030;-65
2022/05/23 07:29:56;;;;;;;0.30;0.30;;;18.30;99.90;;;;;;4973018;28;20038;-65
2022/05/23 07:32:22;;;;;;;1.00;0.80;;;18.30;99.90;;;;;;4971779;28;20035;-65
2022/05/23 07:34:48;;;;;;;0.20;0.20;;;18.20;99.90;;;;;;4971122;28;20113;-64
2022/05/23 07:37:15;;;;;;;0.13;0.13;;;18.00;99.90;;;;;;4972241;28;20027;-65
2022/05/23 07:39:41;;;;;;;0.40;0.40;;;18.10;99.90;;;;;;4972453;28;20053;-64
2022/05/23 07:42:09;;;;;;;0.10;0.10;;;18.20;99.90;;;;;;4955843;28;20023;-65
2022/05/23 07:44:36;;;;;;;0.00;0.00;;;18.20;99.90;;;;;;4988237;28;20027;-65
2022/05/23 07:47:05;;;;;;;0.00;0.00;;;18.20;99.90;;;;;;4988354;28;20058;-65
2022/05/23 07:49:32;;;;;;;0.00;0.00;;;18.30;99.90;;;;;;4973277;28;20533;-65
2022/05/23 07:51:57;;;;;;;0.00;0.00;;;18.40;99.90;;;;;;4953798;28;20456;-65
2022/05/23 08:02:38;;;;;;;0.05;0.05;;;18.60;99.90;;;;;;4953712;29;20081;-65
2022/05/23 08:05:05;;;;;;;0.32;0.32;;;18.70;99.90;;;;;;4961388;28;20031;-65
2022/05/23 08:07:31;;;;;;;0.08;0.08;;;18.50;99.90;;;;;;4973079;28;20035;-65
2022/05/23 08:10:00;;;;;;;0.00;0.00;;;18.30;99.90;;;;;;4987889;28;20034;-65
2022/05/23 08:12:30;;;;;;;2.10;1.15;;;18.40;99.90;;;;;;4987652;28;20690;-65
2022/05/23 08:14:57;;;;;;;0.43;0.40;;;18.50;99.90;;;;;;4987908;28;20082;-65
2022/05/23 08:17:25;;;;;;;0.00;0.00;;;18.50;99.90;;;;;;4987105;28;20081;-65
2022/05/23 08:19:51;;;;;;;2.83;1.35;;;18.80;99.90;;;;;;4972460;28;20463;-65
2022/05/23 08:22:17;;;;;;;0.05;0.05;;;19.00;99.90;;;;;;4972558;28;20572;-65
2022/05/23 08:24:43;;;;;;;0.00;0.00;;;19.30;99.90;;;;;;4987484;28;20110;-66
2022/05/23 08:27:09;;;;;;;0.08;0.08;;;19.30;99.90;;;;;;4972726;28;20191;-66
2022/05/23 08:29:38;;;;;;;0.00;0.00;;;19.10;99.90;;;;;;4971440;28;20041;-64
2022/05/23 08:32:06;;;;;;;0.15;0.15;;;19.10;99.90;;;;;;4972614;28;20063;-64
2022/05/23 08:34:32;;;;;;;0.05;0.05;;;19.30;99.90;;;;;;4987493;28;20066;-65
2022/05/23 08:36:58;;;;;;;0.00;0.00;;;19.50;99.90;;;;;;4971868;28;20114;-65
2022/05/23 08:39:28;;;;;;;0.08;0.08;;;19.50;99.90;;;;;;4987207;28;20122;-65
2022/05/23 08:41:54;;;;;;;0.00;0.00;;;19.50;99.90;;;;;;4972122;28;20474;-64
2022/05/23 08:44:52;;;;;;;0.20;0.20;;;19.60;99.90;;;;;;4987206;28;20035;-64
2022/05/23 08:47:49;;;;;;;0.40;0.40;;;19.60;99.90;;;;;;4970836;28;20146;-64
2022/05/23 08:50:33;;;;;;;0.10;0.10;;;19.70;99.90;;;;;;4971845;28;20078;-64
2022/05/23 08:53:11;;;;;;;0.00;0.00;;;19.70;99.90;;;;;;4986290;28;20102;-64
2022/05/23 08:55:43;;;;;;;0.85;0.57;;;19.80;99.90;;;;;;4986630;28;20045;-65
2022/05/23 08:58:14;;;;;;;0.45;0.45;;;19.70;99.90;;;;;;4986911;28;20081;-65
2022/05/23 09:00:47;;;;;;;0.20;0.20;;;19.70;99.90;;;;;;4971783;28;20038;-65
2022/05/23 09:03:34;;;;;;;0.00;0.00;;;19.70;99.90;;;;;;4986486;28;20519;-65
2022/05/23 09:06:29;;;;;;;0.15;0.15;;;19.90;99.90;;;;;;4971764;28;20358;-65
2022/05/23 09:09:09;;;;;;;2.67;1.52;;;20.10;99.90;;;;;;4971660;28;20027;-65
2022/05/23 09:11:41;;;;;;;0.10;0.10;;;20.20;99.90;;;;;;4970912;28;20138;-65
2022/05/23 09:14:10;;;;;;;0.05;0.05;;;20.40;99.90;;;;;;4986514;28;20027;-65
2022/05/23 09:16:41;;;;;;;0.10;0.10;;;20.30;99.90;;;;;;4971506;28;20475;-65
2022/05/23 09:19:28;;;;;;;0.47;0.47;;;20.40;99.90;;;;;;4986458;28;20031;-65
2022/05/23 09:22:31;;;;;;;0.57;0.30;;;20.70;99.90;;;;;;4970688;28;20509;-65
2022/05/23 09:25:03;;;;;;;1.08;0.25;;;21.00;99.90;;;;;;4985187;28;20042;-65
2022/05/23 09:27:36;;;;;;;0.30;0.30;;;21.20;99.90;;;;;;4971971;28;20043;-65
2022/05/23 09:30:14;;;;;;;0.10;0.08;;;21.40;99.90;;;;;;4986261;28;20027;-65
2022/05/23 09:32:48;;;;;;;0.38;0.38;;;21.80;99.90;;;;;;4986488;28;20030;-65
2022/05/23 09:35:49;;;;;;;0.10;0.10;;;21.50;99.90;;;;;;4971554;28;20085;-65
2022/05/23 09:38:25;;;;;;;0.00;0.00;;;21.60;99.90;;;;;;4947407;28;20051;-65
2022/05/23 09:40:53;;;;;;;0.38;0.30;;;21.90;99.90;;;;;;4971915;28;20030;-65
2022/05/23 09:49:23;;;;;;;0.03;0.03;;;22.40;99.90;;;;;;4983679;28;20446;-65
2022/05/23 09:52:29;;;;;;;0.00;0.00;;;22.60;99.90;;;;;;4986325;28;20386;-65
2022/05/23 09:55:06;;;;;;;0.90;0.65;;;22.70;99.90;;;;;;4972353;28;20058;-65
2022/05/23 09:57:52;;;;;;;0.08;0.08;;;22.50;99.90;;;;;;4968044;28;20037;-65
2022/05/23 10:00:18;;;;;;;1.02;0.77;;;22.60;99.90;;;;;;4954333;29;20403;-65
2022/05/23 10:02:54;;;;;;;0.15;0.15;;;23.00;99.90;;;;;;4955920;28;20035;-65
2022/05/23 10:05:26;;;;;;;0.17;0.17;;;23.20;99.90;;;;;;4966305;28;20558;-65
2022/05/23 10:07:58;;;;;;;6.35;1.55;;;23.40;99.90;;;;;;4990016;28;20375;-65
2022/05/23 10:10:53;;;;;;;0.28;0.25;;;23.30;99.90;;;;;;4989391;28;20031;-65
2022/05/23 10:13:24;;;;;;;0.52;0.43;;;23.60;99.90;;;;;;4966247;28;20457;-65
2022/05/23 10:15:53;;;;;;;0.30;0.30;;;23.60;99.90;;;;;;4974709;28;20047;-65
2022/05/23 10:18:36;;;;;;;0.15;0.15;;;24.00;99.90;;;;;;4975046;28;20426;-65
2022/05/23 10:21:31;;;;;;;0.05;0.05;;;24.10;99.90;;;;;;4989488;28;20031;-64
2022/05/23 10:24:11;;;;;;;0.10;0.10;;;24.10;99.90;;;;;;4974917;28;20027;-65
2022/05/23 10:27:01;;;;;;;0.00;0.00;;;24.10;99.90;;;;;;4989374;28;20042;-65
2022/05/23 10:29:59;;;;;;;0.40;0.40;;;24.00;99.90;;;;;;4988491;28;20483;-65
2022/05/23 10:32:48;;;;;;;0.55;0.55;;;23.70;99.90;;;;;;4974189;28;20043;-65
2022/05/23 10:35:43;;;;;;;0.10;0.10;;;23.50;99.90;;;;;;4988710;28;20026;-65
2022/05/23 10:44:38;;;;;;;0.10;0.10;;;23.90;99.90;;;;;;4986283;28;20081;-65
2022/05/23 10:47:14;;;;;;;0.13;0.10;;;24.00;99.90;;;;;;4973424;28;20071;-65
2022/05/23 10:50:11;;;;;;;0.25;0.22;;;23.80;99.90;;;;;;4974034;28;20039;-65
2022/05/23 10:53:08;;;;;;;0.00;0.00;;;23.60;99.90;;;;;;4988904;28;20062;-65
2022/05/23 10:55:49;;;;;;;0.20;0.20;;;23.20;99.90;;;;;;4986585;28;20125;-65
2022/05/23 10:58:56;;;;;;;0.95;0.88;;;23.10;99.90;;;;;;4988415;28;20030;-65
2022/05/23 11:01:47;;;;;;;0.00;0.00;;;23.10;99.90;;;;;;4973967;28;20371;-65
2022/05/23 11:05:01;;;;;;;0.40;0.38;;;23.30;99.90;;;;;;4974415;28;20027;-65
2022/05/23 11:07:45;;;;;;;0.15;0.15;;;23.40;99.90;;;;;;4973717;28;20043;-65
2022/05/23 11:10:31;;;;;;;0.22;0.20;;;23.40;99.90;;;;;;4972935;28;20402;-65
2022/05/23 11:13:11;;;;;;;0.08;0.08;;;23.70;99.90;;;;;;4987646;28;20126;-65
2022/05/23 11:16:18;;;;;;;0.45;0.45;;;23.50;99.90;;;;;;4973687;28;20030;-65
2022/05/23 11:19:08;;;;;;;0.52;0.50;;;23.60;99.90;;;;;;4973256;28;20046;-65
2022/05/23 11:21:52;;;;;;;0.00;0.00;;;23.30;99.90;;;;;;4973666;28;20089;-65
2022/05/23 11:24:31;;;;;;;0.00;0.00;;;23.30;99.90;;;;;;4973647;28;20422;-64
2022/05/23 11:35:48;;;;;;;0.08;0.08;;;23.00;99.90;;;;;;4973182;28;20656;-66
2022/05/23 11:38:19;;;;;;;0.30;0.30;;;23.10;99.90;;;;;;4973427;28;20205;-66
2022/05/23 11:40:53;;;;;;;0.10;0.10;;;22.90;99.90;;;;;;4987873;28;20626;-66
2022/05/23 11:43:23;;;;;;;0.22;0.22;;;23.00;99.90;;;;;;4973235;28;20074;-66
2022/05/23 11:46:04;;;;;;;1.38;0.50;;;23.30;99.90;;;;;;4973286;28;20023;-66
2022/05/23 11:48:43;;;;;;;;;;;23.00;99.90;;;;;;4986721;28;20113;-66
2022/05/23 11:51:30;;;;;;;0.10;0.10;;;23.20;99.90;;;;;;4971891;28;20255;-66
2022/05/23 11:54:35;;;;;;;0.55;0.43;;;23.30;99.90;;;;;;4987341;28;20134;-66
2022/05/23 11:57:01;;;;;;;0.00;0.00;;;23.20;99.90;;;;;;4974369;28;20050;-66
2022/05/23 11:59:27;;;;;;;0.00;0.00;;;23.30;99.90;;;;;;4972439;28;20146;-66
2022/05/23 12:02:11;;;;;;;0.75;0.35;;;23.40;99.90;;;;;;4972795;28;20125;-65
2022/05/23 12:04:49;;;;;;;0.22;0.22;;;23.40;99.90;;;;;;4972583;28;20046;-66
2022/05/23 12:07:37;;;;;;;0.10;0.10;;;23.30;99.90;;;;;;4973306;28;20053;-65
2022/05/23 12:10:21;;;;;;;0.30;0.30;;;23.30;99.90;;;;;;4972553;28;20058;-66
2022/05/23 12:12:57;;;;;;;0.43;0.43;;;23.30;99.90;;;;;;4972814;28;20532;-66
2022/05/23 12:15:44;;;;;;;0.25;0.25;;;23.20;99.90;;;;;;4973003;28;20039;-65
2022/05/23 12:18:32;;;;;;;0.00;0.00;;;23.10;99.90;;;;;;4987607;28;20057;-66
2022/05/23 12:21:21;;;;;;;0.30;0.30;;;23.20;99.90;;;;;;4987125;28;20049;-65
2022/05/23 12:23:47;;;;;;;0.40;0.22;;;23.10;99.90;;;;;;4984574;28;20122;-66
2022/05/23 12:26:13;;;;;;;0.10;0.10;;;22.90;99.90;;;;;;4987014;28;20115;-66
2022/05/23 12:28:55;;;;;;;0.10;0.10;;;23.10;99.90;;;;;;4971973;28;20123;-66
2022/05/23 12:31:29;;;;;;;0.55;0.40;;;23.10;99.90;;;;;;4987273;28;20053;-66
2022/05/23 12:34:03;;;;;;;0.05;0.03;;;23.00;99.90;;;;;;4972482;28;20100;-66
2022/05/23 12:36:33;;;;;;;1.38;0.80;;;23.10;99.90;;;;;;4986800;28;20157;-65
2022/05/23 12:39:36;;;;;;;0.43;0.20;;;22.90;99.90;;;;;;4986923;28;20029;-65
2022/05/23 12:42:41;;;;;;;0.10;0.10;;;22.80;99.90;;;;;;4972350;28;20046;-66
2022/05/23 12:45:28;;;;;;;0.10;0.10;;;22.90;99.90;;;;;;4971070;28;20093;-65
2022/05/23 12:48:23;;;;;;;0.17;0.17;;;22.60;99.90;;;;;;4972113;28;20038;-65
2022/05/23 12:51:30;;;;;;;1.15;1.05;;;23.00;99.90;;;;;;4972177;28;20386;-65
2022/05/23 12:54:29;;;;;;;0.00;0.00;;;22.90;99.90;;;;;;4986512;28;20035;-65
2022/05/23 12:57:13;;;;;;;0.00;0.00;;;23.00;99.90;;;;;;4971925;28;20035;-65
2022/05/23 13:00:21;;;;;;;0.35;0.35;;;23.10;99.90;;;;;;4970505;28;20552;-66
2022/05/23 13:03:07;;;;;;;2.92;2.17;;;23.10;99.90;;;;;;4970273;28;20046;-64
2022/05/23 13:05:54;;;;;;;2.20;0.63;;;22.90;99.90;;;;;;4985398;28;20027;-65
2022/05/23 13:08:45;;;;;;;0.00;0.00;;;23.00;99.90;;;;;;4985336;28;20386;-65
2022/05/23 13:11:33;;;;;;;;;;;23.00;99.90;;;;;;4984963;28;20038;-65
2022/05/23 13:14:00;;;;;;;0.08;0.08;;;22.90;99.90;;;;;;4971597;28;19917;-65
2022/05/23 13:16:33;;;;;;;0.20;0.20;;;22.80;99.90;;;;;;4986281;28;20082;-65
2022/05/23 13:22:12;;;;;;;0.00;0.00;;;23.10;99.90;;;;;;4971845;28;20126;-65
2022/05/23 13:24:59;;;;;;;0.13;0.13;;;23.20;99.90;;;;;;4985670;28;20046;-66
2022/05/23 13:27:48;;;;;;;0.95;0.52;;;23.30;99.90;;;;;;4970121;28;20442;-65
2022/05/23 13:30:17;;;;;;;0.00;0.00;;;23.30;99.90;;;;;;4983107;28;20046;-65
2022/05/23 13:32:44;;;;;;;0.10;0.10;;;23.60;99.90;;;;;;4985673;28;20102;-65
2022/05/23 13:35:23;;;;;;;0.90;0.40;;;23.80;99.90;;;;;;4970108;28;20529;-65
2022/05/23 13:37:49;;;;;;;0.13;0.13;;;24.40;99.90;;;;;;4985996;28;20031;-65
2022/05/23 13:40:29;;;;;;;0.88;0.63;;;24.70;99.90;;;;;;4970904;28;20038;-65
2022/05/23 13:43:28;;;;;;;0.28;0.15;;;24.30;99.90;;;;;;4986257;28;20054;-65
2022/05/23 13:46:22;;;;;;;0.17;0.15;;;24.70;99.90;;;;;;4970196;28;20106;-65
2022/05/23 13:48:56;;;;;;;0.30;0.30;;;25.10;99.90;;;;;;4969759;28;20047;-65
2022/05/23 13:51:54;;;;;;;0.50;0.43;;;25.10;99.90;;;;;;4971238;28;20030;-65
2022/05/23 13:54:36;;;;;;;0.00;0.00;;;25.30;99.90;;;;;;4986511;28;20023;-65
2022/05/23 13:57:25;;;;;;;1.85;0.35;;;25.40;99.90;;;;;;4950580;28;20167;-65
2022/05/23 14:00:03;;;;;;;1.95;0.43;;;24.70;99.90;;;;;;4979101;28;20418;-65
2022/05/23 14:02:42;;;;;;;0.43;0.25;;;24.50;99.90;;;;;;4951652;29;20067;-65
2022/05/23 14:05:09;;;;;;;0.32;0.22;;;24.60;99.90;;;;;;4960525;28;20034;-65
2022/05/23 14:07:39;;;;;;;0.70;0.52;;;24.90;99.90;;;;;;4985816;28;20034;-66
2022/05/23 14:10:10;;;;;;;0.88;0.73;;;25.90;99.90;;;;;;4985504;28;20031;-65
2022/05/23 14:12:39;;;;;;;0.30;0.25;;;26.50;98.30;;;;;;4973762;28;20031;-65
2022/05/23 14:15:10;;;;;;;0.10;0.10;;;27.00;97.50;;;;;;4970024;28;20082;-65
2022/05/23 14:17:43;;;;;;;1.98;0.63;;;25.70;99.10;;;;;;4975782;23;20075;-68
2022/05/23 14:20:28;;;;;;;0.43;0.43;;;26.80;97.90;;;;;;4984596;28;20030;-67
2022/05/23 14:23:12;;;;;;;4.65;1.45;;;26.50;98.90;;;;;;4969768;28;20027;-67
2022/05/23 14:26:04;;;;;;;1.15;0.75;;;26.90;97.20;;;;;;4970755;28;20482;-68